Time;durP1;ratioP1;P1;durP2;ratioP2;P2;SDS_P1;SDS_P2;PMS_P1;PMS_P2;Temp;Humidity;BMP_temperature;BMP_pressure;BME280_temperature;BME280_humidity;BME280_pressure;Samples;Min_cycle;Max_cycle;Signal;HPM_P1;HPM_P2
2021/11/27 00:01:42;;;;;;;14.77;9.30;;;;;;;2.29;84.32;98437.50;5032248;28;20036;-75
2021/11/27 00:04:11;;;;;;;14.23;9.13;;;;;;;2.33;84.36;98430.34;5046160;28;20044;-76
2021/11/27 00:06:38;;;;;;;16.75;9.55;;;;;;;2.40;83.77;98429.06;5049680;28;20070;-76
2021/11/27 00:09:06;;;;;;;14.43;8.65;;;;;;;2.45;83.54;98430.47;5047182;28;20044;-75
2021/11/27 00:11:34;;;;;;;14.00;8.40;;;;;;;2.43;83.13;98429.72;5031986;28;20048;-76
2021/11/27 00:14:01;;;;;;;15.60;9.88;;;;;;;2.43;83.33;98424.53;5031135;28;20121;-76
2021/11/27 00:16:28;;;;;;;15.23;8.43;;;;;;;2.41;83.32;98431.56;5065525;28;20047;-75
2021/11/27 00:18:56;;;;;;;14.60;8.48;;;;;;;2.39;83.45;98437.81;5032092;28;20039;-76
2021/11/27 00:21:24;;;;;;;17.00;9.02;;;;;;;2.37;83.10;98432.69;5067397;28;20134;-75
2021/11/27 00:23:53;;;;;;;15.40;8.75;;;;;;;2.36;83.22;98427.59;5034585;28;20051;-74
2021/11/27 00:26:21;;;;;;;16.33;9.27;;;;;;;2.39;83.13;98425.66;5050636;28;20040;-74
2021/11/27 00:28:48;;;;;;;16.02;9.25;;;;;;;2.41;82.59;98426.38;5068888;28;20042;-75
2021/11/27 00:31:19;;;;;;;17.08;9.27;;;;;;;2.36;82.90;98420.63;5067019;28;20513;-75
2021/11/27 00:33:47;;;;;;;13.57;8.98;;;;;;;2.21;83.83;98419.81;5052507;28;20071;-75
2021/11/27 00:36:14;;;;;;;18.30;10.40;;;;;;;2.19;84.39;98421.63;5066160;28;20055;-74
2021/11/27 00:38:42;;;;;;;16.52;9.55;;;;;;;2.23;84.22;98419.69;5048958;28;20536;-75
2021/11/27 00:41:12;;;;;;;17.42;9.02;;;;;;;2.24;84.32;98419.59;5069132;28;20059;-75
2021/11/27 00:43:39;;;;;;;18.73;9.35;;;;;;;2.27;84.60;98410.81;5030934;28;20545;-75
2021/11/27 00:46:07;;;;;;;15.80;9.35;;;;;;;2.30;84.42;98413.22;5048889;28;20102;-74
2021/11/27 00:48:34;;;;;;;13.32;8.35;;;;;;;2.30;84.38;98410.63;5060355;28;20054;-75
2021/11/27 00:51:12;;;;;;;13.88;8.05;;;;;;;2.29;84.75;98414.13;5047279;28;20066;-74
2021/11/27 00:53:39;;;;;;;16.15;9.20;;;;;;;2.27;84.28;98411.63;5034592;28;20036;-75
2021/11/27 00:56:07;;;;;;;16.27;8.55;;;;;;;2.25;84.71;98410.91;5034173;28;20056;-76
2021/11/27 00:58:34;;;;;;;14.05;8.18;;;;;;;2.22;84.77;98412.84;5051700;28;20045;-75
2021/11/27 01:01:09;;;;;;;19.25;8.48;;;;;;;2.22;84.87;98408.47;5035058;28;20053;-75
2021/11/27 01:03:39;;;;;;;15.50;9.07;;;;;;;2.20;84.89;98409.50;5051414;28;20123;-76
2021/11/27 01:06:08;;;;;;;16.90;8.70;;;;;;;2.19;84.89;98400.03;5050396;28;20310;-74
2021/11/27 01:08:38;;;;;;;18.02;9.35;;;;;;;2.14;84.98;98391.69;5050969;28;20438;-74
2021/11/27 01:11:13;;;;;;;12.30;8.32;;;;;;;2.15;85.50;98404.56;5050393;28;20052;-75
2021/11/27 01:13:44;;;;;;;14.40;7.90;;;;;;;2.18;85.16;98398.38;5067920;28;20135;-74
2021/11/27 01:16:13;;;;;;;15.82;9.52;;;;;;;2.16;85.25;98401.06;5033458;28;20366;-74
2021/11/27 01:18:40;;;;;;;18.35;8.82;;;;;;;2.13;85.34;98390.88;5050916;28;20041;-74
2021/11/27 01:21:11;;;;;;;17.50;8.55;;;;;;;2.04;85.72;98404.41;5033555;28;20128;-75
2021/11/27 01:23:39;;;;;;;12.75;8.07;;;;;;;1.98;86.30;98396.97;5066980;28;20044;-75
2021/11/27 01:26:10;;;;;;;17.10;8.52;;;;;;;1.86;86.31;98395.94;5027707;28;20514;-74
2021/11/27 01:28:38;;;;;;;15.07;9.27;;;;;;;1.83;86.79;98395.28;5035450;28;20524;-74
2021/11/27 01:31:06;;;;;;;18.98;9.10;;;;;;;1.70;87.49;98392.56;5047992;28;20040;-75
2021/11/27 01:33:35;;;;;;;13.52;8.38;;;;;;;1.62;88.17;98389.59;5051308;28;20086;-74
2021/11/27 01:36:03;;;;;;;13.88;8.20;;;;;;;1.61;88.82;98393.09;5044969;28;20140;-75
2021/11/27 01:38:31;;;;;;;17.85;8.77;;;;;;;1.52;89.03;98387.53;5045229;28;20055;-74
2021/11/27 01:40:59;;;;;;;13.02;8.35;;;;;;;1.48;89.35;98393.81;5066017;28;20117;-75
2021/11/27 01:43:28;;;;;;;14.13;8.25;;;;;;;1.42;89.56;98395.94;5050163;28;20150;-76
2021/11/27 01:45:55;;;;;;;14.43;8.43;;;;;;;1.37;90.26;98393.59;5036790;28;20131;-76
2021/11/27 01:48:23;;;;;;;16.30;8.80;;;;;;;1.36;90.33;98385.94;5032563;28;20063;-75
2021/11/27 01:50:55;;;;;;;16.58;8.77;;;;;;;1.42;90.49;98377.78;5050374;28;20491;-73
2021/11/27 01:53:23;;;;;;;17.50;8.60;;;;;;;1.35;90.97;98386.81;5067677;28;20040;-76
2021/11/27 01:55:54;;;;;;;16.42;8.77;;;;;;;1.33;90.50;98386.91;5048295;28;20068;-76
2021/11/27 01:58:21;;;;;;;14.05;9.00;;;;;;;1.24;90.93;98382.25;5033918;28;21441;-74
2021/11/27 02:00:52;;;;;;;16.40;9.55;;;;;;;1.15;91.37;98373.25;5035416;28;20426;-75
2021/11/27 02:03:20;;;;;;;21.30;9.70;;;;;;;1.10;92.23;98379.63;5031986;28;20499;-75
2021/11/27 02:05:47;;;;;;;16.63;9.63;;;;;;;1.11;92.49;98374.34;5050539;28;20135;-75
2021/11/27 02:08:16;;;;;;;14.50;9.52;;;;;;;1.07;92.65;98380.59;5050540;28;20160;-74
2021/11/27 02:10:44;;;;;;;17.27;9.05;;;;;;;1.06;93.05;98386.72;5031405;28;20040;-76
2021/11/27 02:13:11;;;;;;;19.13;10.73;;;;;;;1.06;93.28;98375.53;5034604;28;20086;-76
2021/11/27 02:15:39;;;;;;;17.35;9.70;;;;;;;1.10;93.15;98379.63;5016132;28;20040;-75
2021/11/27 02:18:06;;;;;;;15.82;9.00;;;;;;;1.02;93.25;98372.25;5048574;28;20049;-75
2021/11/27 02:20:39;;;;;;;19.17;10.23;;;;;;;1.01;93.84;98365.41;5031315;28;20135;-75
2021/11/27 02:23:07;;;;;;;16.33;10.00;;;;;;;0.93;93.56;98365.84;5031298;28;20083;-76
2021/11/27 02:25:35;;;;;;;15.13;8.93;;;;;;;0.92;93.78;98365.94;5054489;28;20127;-75
2021/11/27 02:28:04;;;;;;;14.10;9.82;;;;;;;0.92;94.15;98363.34;5047432;28;20139;-76
2021/11/27 02:30:31;;;;;;;18.45;9.68;;;;;;;0.87;94.36;98360.19;5063948;28;20197;-74
2021/11/27 02:32:58;;;;;;;17.92;10.00;;;;;;;0.90;94.46;98360.00;5035265;28;20051;-74
2021/11/27 02:35:26;;;;;;;17.65;9.50;;;;;;;0.91;94.47;98353.91;5052647;28;20135;-75
2021/11/27 02:37:53;;;;;;;19.77;9.40;;;;;;;0.91;94.48;98352.16;5028965;28;20127;-77
2021/11/27 02:40:21;;;;;;;14.60;8.70;;;;;;;0.94;94.55;98354.56;5080873;28;20070;-75
2021/11/27 02:42:49;;;;;;;20.65;10.10;;;;;;;1.00;94.05;98351.63;5047421;28;20071;-75
2021/11/27 02:45:17;;;;;;;13.18;9.00;;;;;;;0.96;94.19;98349.31;5023716;28;20163;-75
2021/11/27 02:47:44;;;;;;;15.52;9.38;;;;;;;0.89;94.32;98347.97;5045154;28;20086;-76
2021/11/27 02:50:13;;;;;;;18.77;9.27;;;;;;;0.92;94.81;98350.41;5013449;28;20044;-76
2021/11/27 02:52:41;;;;;;;18.02;10.43;;;;;;;0.92;94.47;98356.41;5007876;28;20151;-75
2021/11/27 02:55:10;;;;;;;18.17;9.82;;;;;;;0.96;94.50;98351.91;5047177;28;20507;-76
2021/11/27 02:57:37;;;;;;;17.27;9.82;;;;;;;1.02;94.11;98352.38;5050916;28;20049;-75
2021/11/27 03:00:10;;;;;;;20.15;10.95;;;;;;;1.07;93.75;98352.13;5047442;28;20471;-75
2021/11/27 03:02:39;;;;;;;18.75;10.50;;;;;;;1.15;93.35;98351.69;5034057;28;20379;-75
2021/11/27 03:05:07;;;;;;;22.77;10.15;;;;;;;1.13;93.80;98348.38;5014626;28;20135;-76
2021/11/27 03:07:34;;;;;;;18.90;9.98;;;;;;;1.12;93.32;98350.09;5018009;28;20079;-74
2021/11/27 03:10:03;;;;;;;18.42;10.15;;;;;;;1.09;93.45;98346.88;5047658;28;20051;-75
2021/11/27 03:12:32;;;;;;;17.92;10.27;;;;;;;1.01;93.91;98345.53;5067540;28;20124;-75
2021/11/27 03:14:59;;;;;;;14.38;9.75;;;;;;;1.00;94.35;98343.88;5063338;28;20056;-75
2021/11/27 03:17:26;;;;;;;19.38;9.60;;;;;;;0.95;94.48;98338.09;5016496;28;20522;-76
2021/11/27 03:19:55;;;;;;;20.92;9.90;;;;;;;0.90;94.41;98339.25;5047777;28;20448;-75
2021/11/27 03:22:24;;;;;;;18.00;9.77;;;;;;;0.83;94.75;98338.78;5047348;28;20468;-75
2021/11/27 03:24:51;;;;;;;15.13;9.85;;;;;;;0.80;95.06;98330.34;5043551;28;20070;-74
2021/11/27 03:27:19;;;;;;;17.90;10.20;;;;;;;0.79;95.13;98334.69;5049708;28;20102;-76
2021/11/27 03:29:46;;;;;;;17.15;10.00;;;;;;;0.78;95.00;98342.56;5062922;28;20431;-76
2021/11/27 03:32:16;;;;;;;16.23;10.68;;;;;;;0.69;95.75;98333.53;5033306;28;20558;-74
2021/11/27 03:34:45;;;;;;;18.05;10.90;;;;;;;0.71;96.16;98334.28;5030858;28;20479;-75
2021/11/27 03:37:13;;;;;;;17.55;10.32;;;;;;;0.69;96.24;98321.44;5017782;28;20055;-74
2021/11/27 03:39:40;;;;;;;18.20;10.75;;;;;;;0.63;96.77;98328.69;5045150;28;20161;-75
2021/11/27 03:42:13;;;;;;;17.88;9.43;;;;;;;0.57;96.93;98329.03;5033467;28;20460;-75
2021/11/27 03:44:42;;;;;;;19.65;10.63;;;;;;;0.54;96.96;98332.66;5064785;28;20109;-75
2021/11/27 03:47:09;;;;;;;19.10;9.82;;;;;;;0.52;97.59;98336.22;5049264;28;20139;-74
2021/11/27 03:49:37;;;;;;;22.55;11.05;;;;;;;0.47;97.90;98339.91;5047165;28;20045;-75
2021/11/27 03:52:05;;;;;;;18.65;10.02;;;;;;;0.46;97.70;98335.63;5032234;28;20152;-74
2021/11/27 03:55:03;;;;;;;16.88;10.32;;;;;;;0.47;97.75;98334.72;5047242;28;20163;-75
2021/11/27 03:57:31;;;;;;;16.73;9.55;;;;;;;0.49;97.70;98340.63;5032669;28;20064;-76
2021/11/27 03:59:58;;;;;;;15.00;9.45;;;;;;;0.53;97.49;98349.06;5013536;28;20045;-77
2021/11/27 04:02:25;;;;;;;16.55;9.77;;;;;;;0.55;97.39;98349.00;5033135;28;20044;-76
2021/11/27 04:04:53;;;;;;;20.15;9.70;;;;;;;0.57;97.29;98352.34;5061763;28;20135;-76
2021/11/27 04:07:20;;;;;;;18.75;10.80;;;;;;;0.58;96.83;98354.81;5017968;28;20049;-75
2021/11/27 04:09:48;;;;;;;18.50;9.68;;;;;;;0.68;96.47;98348.25;5046135;28;20041;-75
2021/11/27 04:12:15;;;;;;;19.20;9.63;;;;;;;0.75;95.64;98353.91;5032713;28;20137;-75
2021/11/27 04:14:42;;;;;;;15.90;9.75;;;;;;;0.76;95.53;98351.22;5027929;28;20114;-74
2021/11/27 04:17:09;;;;;;;19.30;10.07;;;;;;;0.80;94.85;98349.31;5082520;28;20048;-75
2021/11/27 04:19:37;;;;;;;17.40;9.25;;;;;;;0.86;94.63;98353.34;5014738;28;20052;-75
2021/11/27 04:22:09;;;;;;;15.52;9.32;;;;;;;0.86;94.82;98359.34;5052839;28;20040;-75
2021/11/27 04:24:38;;;;;;;16.15;9.07;;;;;;;0.88;94.65;98347.13;5063258;28;20033;-75
2021/11/27 04:27:06;;;;;;;15.93;9.90;;;;;;;0.85;94.53;98347.28;5047627;28;20493;-74
2021/11/27 04:29:34;;;;;;;16.50;9.13;;;;;;;0.88;94.92;98346.31;5072890;28;20135;-75
2021/11/27 04:32:01;;;;;;;18.98;10.20;;;;;;;0.93;94.25;98334.75;5048397;28;20139;-74
2021/11/27 04:34:28;;;;;;;15.45;9.10;;;;;;;0.94;93.81;98340.75;5031134;28;20293;-73
2021/11/27 04:36:55;;;;;;;11.80;8.57;;;;;;;0.92;93.63;98347.81;5033844;28;20033;-74
2021/11/27 04:39:23;;;;;;;17.42;9.23;;;;;;;0.94;93.30;98344.19;5040805;28;20128;-76
2021/11/27 04:41:50;;;;;;;16.08;9.48;;;;;;;0.90;93.51;98352.22;5032910;28;20040;-75
2021/11/27 04:44:17;;;;;;;16.80;9.82;;;;;;;0.91;93.51;98354.75;5041775;28;20632;-77
2021/11/27 04:46:44;;;;;;;22.25;9.55;;;;;;;0.96;93.18;98349.31;5064924;28;20539;-76
2021/11/27 04:49:12;;;;;;;15.60;9.60;;;;;;;1.02;92.90;98354.97;5043909;28;20522;-77
2021/11/27 04:51:39;;;;;;;19.25;9.35;;;;;;;1.06;92.72;98349.63;5037980;28;20123;-75
2021/11/27 04:54:07;;;;;;;16.08;9.65;;;;;;;1.00;92.95;98355.97;5046771;28;20040;-76
2021/11/27 04:56:34;;;;;;;13.93;8.90;;;;;;;1.02;92.43;98347.19;5048480;28;20048;-75
2021/11/27 04:59:02;;;;;;;19.08;9.70;;;;;;;1.02;92.95;98354.97;5031340;28;20140;-78
2021/11/27 05:01:29;;;;;;;16.55;8.88;;;;;;;1.04;93.01;98351.44;5060510;28;20043;-76
2021/11/27 05:03:57;;;;;;;14.23;9.02;;;;;;;1.11;93.03;98347.59;5062600;28;20048;-76
2021/11/27 05:06:25;;;;;;;17.08;8.35;;;;;;;1.12;92.35;98344.91;5051818;28;20045;-75
2021/11/27 05:08:52;;;;;;;15.75;9.13;;;;;;;1.11;92.48;98342.41;5052152;28;20503;-74
2021/11/27 05:11:20;;;;;;;15.95;8.93;;;;;;;1.13;92.42;98345.78;5066012;28;20047;-73
2021/11/27 05:13:47;;;;;;;21.38;10.20;;;;;;;1.15;92.40;98341.31;5051206;28;20051;-75
2021/11/27 05:16:14;;;;;;;15.60;10.00;;;;;;;1.12;92.71;98344.91;5066793;28;20072;-74
2021/11/27 05:18:43;;;;;;;16.73;9.38;;;;;;;1.13;92.57;98348.38;5069402;28;20537;-75
2021/11/27 05:21:11;;;;;;;20.80;10.32;;;;;;;1.13;92.58;98351.78;5068092;28;20267;-75
2021/11/27 05:23:38;;;;;;;17.63;10.05;;;;;;;1.23;92.10;98346.91;5051441;28;20363;-73
2021/11/27 05:26:05;;;;;;;18.90;9.68;;;;;;;1.21;91.69;98356.50;5032721;28;20561;-74
2021/11/27 05:28:32;;;;;;;21.05;9.93;;;;;;;1.18;91.60;98360.13;5015388;28;20152;-75
2021/11/27 05:31:00;;;;;;;21.77;9.80;;;;;;;1.19;91.68;98359.19;5036995;28;20082;-75
2021/11/27 05:36:18;;;;;;;19.02;9.05;;;;;;;1.07;92.62;98352.13;5052629;28;20411;-76
2021/11/27 05:38:47;;;;;;;16.58;9.82;;;;;;;1.07;92.91;98362.47;5030996;28;20049;-75
2021/11/27 05:41:15;;;;;;;16.75;9.98;;;;;;;1.04;92.96;98362.66;5050340;28;20044;-75
2021/11/27 05:43:43;;;;;;;20.58;10.90;;;;;;;1.01;93.08;98358.47;5035294;28;20082;-75
2021/11/27 05:46:11;;;;;;;18.65;11.13;;;;;;;1.01;93.06;98368.00;5036749;28;20058;-75
2021/11/27 05:48:38;;;;;;;19.88;10.35;;;;;;;1.03;93.06;98366.16;5066616;28;20418;-75
2021/11/27 05:51:05;;;;;;;17.27;10.15;;;;;;;1.11;93.13;98361.38;5034198;28;20072;-74
2021/11/27 05:53:33;;;;;;;18.98;10.63;;;;;;;1.09;93.00;98365.00;5032225;28;20061;-75
2021/11/27 05:56:00;;;;;;;17.92;10.38;;;;;;;1.05;93.46;98364.34;5031758;28;20508;-76
2021/11/27 05:58:28;;;;;;;22.77;11.55;;;;;;;1.05;93.49;98368.69;5050927;28;20124;-76
2021/11/27 06:00:55;;;;;;;19.90;10.55;;;;;;;1.06;93.34;98367.75;5018338;28;20044;-75
2021/11/27 06:03:22;;;;;;;18.63;11.45;;;;;;;1.12;93.38;98367.41;5034612;28;20359;-74
2021/11/27 06:05:50;;;;;;;20.15;11.43;;;;;;;1.13;93.02;98374.28;5050578;28;20052;-75
2021/11/27 06:08:17;;;;;;;20.25;11.25;;;;;;;1.07;93.20;98365.06;5034067;28;20092;-76
2021/11/27 06:10:44;;;;;;;20.90;11.98;;;;;;;1.06;93.05;98366.00;5049746;28;20028;-75
2021/11/27 06:13:11;;;;;;;20.38;11.38;;;;;;;1.05;93.39;98366.09;5017420;28;20131;-77
2021/11/27 06:15:39;;;;;;;20.05;11.63;;;;;;;1.04;93.56;98364.41;5034740;28;20076;-77
2021/11/27 06:18:06;;;;;;;22.42;12.20;;;;;;;1.07;93.29;98366.81;5068098;28;20041;-77
2021/11/27 06:20:33;;;;;;;20.63;11.52;;;;;;;1.05;93.21;98376.44;5048301;28;20173;-76
2021/11/27 06:23:00;;;;;;;25.30;12.75;;;;;;;1.05;93.29;98371.28;5069282;28;20086;-76
2021/11/27 06:25:28;;;;;;;21.58;12.15;;;;;;;1.11;93.19;98368.31;5031545;28;20144;-77
2021/11/27 06:27:56;;;;;;;23.85;12.73;;;;;;;1.08;93.40;98369.34;5018032;28;20037;-74
2021/11/27 06:30:24;;;;;;;26.02;13.18;;;;;;;1.08;93.36;98373.66;5047266;28;20055;-76
2021/11/27 06:32:51;;;;;;;26.83;12.93;;;;;;;1.04;93.43;98382.53;5035202;28;20498;-75
2021/11/27 06:35:19;;;;;;;25.27;13.32;;;;;;;1.08;93.57;98386.63;5051773;28;20513;-77
2021/11/27 06:37:46;;;;;;;27.67;14.25;;;;;;;1.08;93.84;98379.72;5037613;28;20143;-77
2021/11/27 06:40:14;;;;;;;23.75;13.88;;;;;;;1.04;93.52;98387.72;5025316;28;20055;-78
2021/11/27 06:42:41;;;;;;;26.08;13.85;;;;;;;1.02;93.63;98390.41;5034249;28;20128;-75
2021/11/27 06:45:09;;;;;;;23.05;12.80;;;;;;;1.02;94.38;98404.19;5060960;28;20056;-76
2021/11/27 06:47:37;;;;;;;26.30;14.32;;;;;;;1.08;93.97;98400.44;5065963;28;20229;-74
2021/11/27 06:50:04;;;;;;;26.75;13.90;;;;;;;1.06;94.04;98407.44;5028066;28;20059;-75
2021/11/27 06:52:32;;;;;;;25.60;14.02;;;;;;;1.12;94.06;98416.63;5024705;28;20131;-75
2021/11/27 06:54:59;;;;;;;24.27;13.93;;;;;;;1.16;93.51;98420.72;5064108;28;20056;-74
2021/11/27 06:57:26;;;;;;;27.90;15.50;;;;;;;1.12;93.64;98419.22;5044885;28;20142;-79
2021/11/27 06:59:53;;;;;;;28.77;15.15;;;;;;;1.13;93.54;98419.16;5015706;28;20058;-75
2021/11/27 07:02:21;;;;;;;28.65;14.30;;;;;;;1.16;93.85;98418.97;5032250;28;20143;-74
2021/11/27 07:04:48;;;;;;;29.15;14.52;;;;;;;1.22;93.66;98421.22;5030906;28;20068;-75
2021/11/27 07:07:15;;;;;;;28.15;14.85;;;;;;;1.25;93.11;98427.97;5050689;28;20127;-75
2021/11/27 07:09:42;;;;;;;29.80;15.65;;;;;;;1.35;92.76;98421.38;5047547;28;20486;-74
2021/11/27 07:12:10;;;;;;;28.35;14.40;;;;;;;1.40;92.37;98421.13;5049396;28;20131;-75
2021/11/27 07:14:37;;;;;;;26.55;14.32;;;;;;;1.42;92.08;98417.50;5045770;28;20079;-76
2021/11/27 07:17:04;;;;;;;28.67;15.13;;;;;;;1.43;91.69;98424.34;5066287;28;20067;-75
2021/11/27 07:19:32;;;;;;;27.75;15.18;;;;;;;1.55;91.29;98434.97;5047185;28;20148;-75
2021/11/27 07:22:00;;;;;;;27.00;15.45;;;;;;;1.66;91.29;98432.56;5032227;28;20064;-74
2021/11/27 07:24:27;;;;;;;26.63;14.50;;;;;;;1.68;90.60;98438.53;5064157;28;20049;-75
2021/11/27 07:26:55;;;;;;;33.00;17.27;;;;;;;1.77;89.97;98432.81;5050743;28;20550;-75
2021/11/27 07:29:22;;;;;;;30.95;16.42;;;;;;;1.78;89.96;98442.25;5033380;28;20541;-74
2021/11/27 07:31:49;;;;;;;32.50;16.50;;;;;;;1.84;90.17;98446.25;5048976;28;20131;-74
2021/11/27 07:34:16;;;;;;;28.13;16.15;;;;;;;1.92;89.46;98446.63;5046665;28;20048;-73
2021/11/27 07:36:44;;;;;;;29.85;15.40;;;;;;;1.94;88.99;98443.03;5050830;28;20148;-75
2021/11/27 07:39:11;;;;;;;30.70;15.95;;;;;;;2.06;88.25;98443.22;5044384;28;20075;-75
2021/11/27 07:41:39;;;;;;;32.83;16.20;;;;;;;2.12;87.84;98440.28;5034409;28;20044;-75
2021/11/27 07:44:07;;;;;;;32.80;16.73;;;;;;;2.05;87.48;98441.56;5065745;28;20578;-77
2021/11/27 07:46:34;;;;;;;33.50;17.23;;;;;;;2.06;87.69;98440.63;5030336;28;20051;-74
2021/11/27 07:49:01;;;;;;;31.05;16.02;;;;;;;2.09;87.68;98449.06;5046768;28;20127;-75
2021/11/27 07:51:30;;;;;;;30.88;15.95;;;;;;;2.16;87.86;98449.53;5048823;28;20135;-75
2021/11/27 07:53:58;;;;;;;32.90;16.85;;;;;;;2.21;86.80;98445.75;5048935;28;20052;-77
2021/11/27 07:56:26;;;;;;;35.15;17.25;;;;;;;2.34;87.07;98447.59;5048311;28;20394;-76
2021/11/27 07:58:54;;;;;;;30.85;16.77;;;;;;;2.43;86.04;98439.25;5048685;28;20044;-75
2021/11/27 08:01:21;;;;;;;29.85;16.30;;;;;;;2.53;84.71;98438.63;5065198;28;20041;-74
2021/11/27 08:03:48;;;;;;;29.73;15.77;;;;;;;2.71;84.20;98444.47;5046414;28;20498;-75
2021/11/27 08:06:15;;;;;;;33.85;17.45;;;;;;;2.88;82.57;98442.56;5047995;28;20135;-76
2021/11/27 08:08:43;;;;;;;35.45;17.73;;;;;;;2.94;82.75;98450.81;5049335;28;20041;-75
2021/11/27 08:11:10;;;;;;;27.42;15.88;;;;;;;3.05;82.48;98458.75;5030076;28;20139;-75
2021/11/27 08:13:37;;;;;;;30.85;17.17;;;;;;;3.10;80.99;98449.84;5048504;28;20076;-75
2021/11/27 08:16:04;;;;;;;30.95;16.13;;;;;;;3.20;81.09;98450.94;5030606;28;20067;-76
2021/11/27 08:18:31;;;;;;;29.08;16.48;;;;;;;3.33;79.53;98444.00;5048321;28;20548;-73
2021/11/27 08:21:00;;;;;;;29.42;16.67;;;;;;;3.22;79.57;98439.50;5037295;28;20440;-76
2021/11/27 08:23:47;;;;;;;29.67;16.63;;;;;;;3.19;79.69;98446.66;5060506;28;21089;-76
2021/11/27 08:26:14;;;;;;;31.67;16.80;;;;;;;3.29;80.23;98440.78;5030970;28;20488;-76
2021/11/27 08:28:41;;;;;;;30.73;17.33;;;;;;;3.35;79.59;98444.75;5066233;28;20040;-75
2021/11/27 08:31:09;;;;;;;30.17;17.98;;;;;;;3.39;79.20;98446.25;5062403;28;20526;-75
2021/11/27 08:33:36;;;;;;;32.00;16.35;;;;;;;3.48;78.55;98447.41;5043721;28;20044;-75
2021/11/27 08:36:03;;;;;;;32.88;16.58;;;;;;;3.51;77.82;98447.19;5047729;28;20076;-76
2021/11/27 08:38:31;;;;;;;30.65;16.55;;;;;;;3.62;77.77;98446.50;5039009;28;20475;-74
2021/11/27 08:40:58;;;;;;;32.92;16.33;;;;;;;3.62;77.65;98449.13;5036894;28;20159;-75
2021/11/27 08:43:26;;;;;;;28.85;16.45;;;;;;;3.72;77.19;98455.38;5019337;28;20127;-76
2021/11/27 08:45:54;;;;;;;27.77;15.90;;;;;;;3.73;77.03;98454.44;5028137;28;20186;-78
2021/11/27 08:48:21;;;;;;;28.38;15.75;;;;;;;3.66;77.85;98456.63;5032581;28;20128;-75
2021/11/27 08:50:48;;;;;;;36.00;16.60;;;;;;;3.61;77.23;98450.88;5017053;28;20128;-75
2021/11/27 08:53:16;;;;;;;29.95;16.08;;;;;;;3.58;76.88;98450.25;5066614;28;20307;-77
2021/11/27 08:55:43;;;;;;;28.05;15.90;;;;;;;3.54;77.13;98455.63;5033906;28;20037;-74
2021/11/27 08:58:10;;;;;;;30.73;17.05;;;;;;;3.47;76.94;98456.16;5085878;28;20127;-76
2021/11/27 09:00:40;;;;;;;30.95;16.30;;;;;;;3.48;76.99;98455.22;5067580;28;20124;-74
2021/11/27 09:03:08;;;;;;;30.77;16.77;;;;;;;3.42;77.10;98453.84;5051071;28;20080;-77
2021/11/27 09:05:35;;;;;;;31.80;16.80;;;;;;;3.35;76.56;98452.56;5049322;28;20279;-75
2021/11/27 09:08:02;;;;;;;25.55;14.93;;;;;;;3.49;76.34;98449.91;5036648;28;20485;-75
2021/11/27 09:10:30;;;;;;;29.25;16.23;;;;;;;3.46;76.48;98447.50;5049370;28;20149;-75
2021/11/27 09:12:58;;;;;;;29.65;16.02;;;;;;;3.37;76.49;98452.47;5051843;28;20032;-75
2021/11/27 09:15:26;;;;;;;26.77;15.98;;;;;;;3.28;76.66;98448.69;5067640;28;20127;-76
2021/11/27 09:17:54;;;;;;;31.73;16.83;;;;;;;3.19;76.74;98450.09;5052717;28;20138;-75
2021/11/27 09:20:22;;;;;;;32.92;17.88;;;;;;;3.29;76.76;98451.19;5062572;28;20036;-74
2021/11/27 09:22:49;;;;;;;33.35;17.02;;;;;;;3.32;75.96;98450.16;5054208;28;20055;-75
2021/11/27 09:25:16;;;;;;;29.15;16.27;;;;;;;3.38;77.62;98447.19;5063174;28;20084;-74
2021/11/27 09:27:43;;;;;;;28.77;15.98;;;;;;;3.50;77.04;98450.75;5068761;28;20044;-75
2021/11/27 09:30:11;;;;;;;25.20;15.50;;;;;;;3.56;75.98;98450.34;5049385;28;20124;-76
2021/11/27 09:32:38;;;;;;;32.10;15.40;;;;;;;3.56;75.90;98447.75;5035624;28;20127;-74
2021/11/27 09:35:06;;;;;;;30.00;16.55;;;;;;;3.59;75.93;98452.75;5052846;28;20049;-76
2021/11/27 09:37:33;;;;;;;28.40;15.77;;;;;;;3.60;75.53;98463.97;5048647;28;20465;-75
2021/11/27 09:40:02;;;;;;;32.20;15.98;;;;;;;3.66;75.44;98461.81;5051301;28;20060;-75
2021/11/27 09:42:29;;;;;;;31.52;16.70;;;;;;;3.58;76.28;98461.47;5051195;28;20041;-75
2021/11/27 09:44:57;;;;;;;30.25;16.30;;;;;;;3.60;75.82;98471.78;5032603;28;20063;-74
2021/11/27 09:47:25;;;;;;;32.28;16.20;;;;;;;3.55;75.95;98466.88;5049706;28;20540;-74
2021/11/27 09:49:55;;;;;;;32.03;16.27;;;;;;;3.54;76.36;98467.81;5032442;28;20045;-75
2021/11/27 09:52:22;;;;;;;27.23;15.77;;;;;;;3.51;75.81;98463.66;5049545;28;20388;-75
2021/11/27 09:54:50;;;;;;;29.15;15.95;;;;;;;3.60;75.52;98451.78;5032060;28;20106;-76
2021/11/27 09:57:17;;;;;;;33.13;16.90;;;;;;;3.62;75.98;98452.56;5018946;28;20044;-74
2021/11/27 09:59:47;;;;;;;29.88;17.48;;;;;;;3.65;76.05;98451.50;5031568;28;20033;-75
2021/11/27 10:02:17;;;;;;;30.13;16.70;;;;;;;3.73;75.61;98452.66;5047812;28;20041;-75
2021/11/27 10:05:03;;;;;;;30.13;17.08;;;;;;;3.88;75.00;98445.63;5033317;28;20255;-75
2021/11/27 10:07:31;;;;;;;28.55;16.90;;;;;;;3.96;75.35;98455.53;5035268;28;20048;-74
2021/11/27 10:09:58;;;;;;;28.98;16.75;;;;;;;4.00;73.95;98454.38;5066160;28;20076;-74
2021/11/27 10:12:25;;;;;;;29.83;16.58;;;;;;;3.81;74.22;98442.59;5068349;28;20127;-75
2021/11/27 10:14:53;;;;;;;25.95;16.42;;;;;;;3.94;74.44;98445.22;5038153;28;20260;-75
2021/11/27 10:17:21;;;;;;;27.90;15.25;;;;;;;4.07;73.97;98446.06;5034675;28;20068;-75
2021/11/27 10:19:58;;;;;;;30.48;16.42;;;;;;;4.13;73.75;98452.63;5047326;28;20203;-75
2021/11/27 10:22:37;;;;;;;29.40;14.18;;;;;;;4.14;72.59;98453.47;5031853;28;20033;-75
2021/11/27 10:25:25;;;;;;;25.77;15.27;;;;;;;4.09;73.22;98450.34;5064880;28;20036;-75
2021/11/27 10:28:01;;;;;;;27.85;15.02;;;;;;;4.21;73.12;98457.31;5030016;28;20365;-75
2021/11/27 10:30:28;;;;;;;26.58;15.57;;;;;;;4.21;72.61;98454.72;5047732;28;20653;-75
2021/11/27 10:32:57;;;;;;;29.85;16.42;;;;;;;4.16;72.93;98462.00;5051430;28;20040;-76
2021/11/27 10:35:25;;;;;;;28.52;15.60;;;;;;;4.22;72.63;98461.59;5044813;28;20139;-75
2021/11/27 10:37:53;;;;;;;23.50;14.63;;;;;;;4.17;73.19;98463.69;5063387;28;20128;-75
2021/11/27 10:40:26;;;;;;;33.03;16.17;;;;;;;4.09;73.29;98466.78;5030844;28;20051;-75
2021/11/27 10:42:59;;;;;;;27.30;15.75;;;;;;;4.07;73.62;98469.50;5033754;28;20044;-75
2021/11/27 10:45:28;;;;;;;27.10;16.00;;;;;;;4.06;73.71;98461.81;5050241;28;20503;-75
2021/11/27 10:48:18;;;;;;;28.27;15.68;;;;;;;3.95;74.27;98457.28;5043209;28;20040;-77
2021/11/27 10:50:52;;;;;;;27.17;14.85;;;;;;;3.98;74.15;98457.09;5010550;28;20080;-75
2021/11/27 10:53:24;;;;;;;25.10;15.13;;;;;;;4.01;74.53;98454.31;5063636;28;20066;-77
2021/11/27 10:55:52;;;;;;;23.23;14.95;;;;;;;4.06;74.79;98461.81;5044767;28;20522;-76
2021/11/27 10:58:20;;;;;;;27.00;16.48;;;;;;;4.13;74.20;98470.03;5046268;28;20060;-75
2021/11/27 11:00:50;;;;;;;28.42;15.57;;;;;;;4.12;73.80;98460.56;5012117;28;20106;-75
2021/11/27 11:03:33;;;;;;;26.45;15.35;;;;;;;4.03;74.75;98457.63;5032198;28;20132;-76
2021/11/27 11:06:17;;;;;;;24.05;13.93;;;;;;;4.12;74.06;98450.97;5066330;28;20128;-74
2021/11/27 11:08:44;;;;;;;30.00;15.32;;;;;;;4.14;74.59;98456.91;5081949;28;20471;-75
2021/11/27 11:11:30;;;;;;;27.77;16.30;;;;;;;4.25;74.48;98461.41;5016809;28;20071;-75
2021/11/27 11:14:00;;;;;;;30.35;16.38;;;;;;;4.16;73.97;98452.44;5027861;28;20118;-75
2021/11/27 11:16:31;;;;;;;27.30;15.60;;;;;;;4.11;74.48;98456.28;5045283;28;20410;-75
2021/11/27 11:19:12;;;;;;;25.98;15.50;;;;;;;4.20;74.34;98453.06;5045971;28;20114;-75
2021/11/27 11:22:13;;;;;;;26.58;15.50;;;;;;;4.20;73.80;98453.91;5083504;28;20037;-74
2021/11/27 11:24:43;;;;;;;23.58;14.68;;;;;;;4.24;73.64;98464.94;5046054;28;20044;-74
2021/11/27 11:27:10;;;;;;;25.52;15.98;;;;;;;4.19;73.94;98454.84;5033087;28;20511;-76
2021/11/27 11:29:50;;;;;;;25.52;15.55;;;;;;;4.16;74.04;98452.44;5046864;28;20052;-75
2021/11/27 11:32:29;;;;;;;25.38;14.85;;;;;;;4.09;74.58;98443.34;5033081;28;20040;-75
2021/11/27 11:35:01;;;;;;;24.83;14.43;;;;;;;4.15;74.27;98445.56;5017389;28;20534;-76
2021/11/27 11:37:29;;;;;;;30.08;15.80;;;;;;;4.23;74.20;98437.22;5048846;28;20123;-77
2021/11/27 11:39:57;;;;;;;26.50;14.75;;;;;;;4.27;74.22;98442.09;5063039;28;20159;-75